Time;durP1;ratioP1;P1;durP2;ratioP2;P2;SDS_P1;SDS_P2;PMS_P1;PMS_P2;Temp;Humidity;BMP_temperature;BMP_pressure;BME280_temperature;BME280_humidity;BME280_pressure;Samples;Min_cycle;Max_cycle;Signal;HPM_P1;HPM_P2
2021/03/18 00:00:13;;;;;;;6.97;4.67;;;;;;;1.58;70.98;98623.28;5077408;28;20233;-76
2021/03/18 00:02:40;;;;;;;7.33;4.40;;;;;;;1.52;70.65;98625.78;5078420;28;20983;-79
2021/03/18 00:05:07;;;;;;;8.37;4.40;;;;;;;1.53;71.04;98620.66;5078218;28;20274;-76
2021/03/18 00:07:35;;;;;;;7.13;4.63;;;;;;;1.56;70.98;98624.94;5057780;28;20229;-76
2021/03/18 00:10:01;;;;;;;6.83;4.60;;;;;;;1.60;70.83;98621.56;5058626;28;20268;-76
2021/03/18 00:12:27;;;;;;;7.27;4.83;;;;;;;1.62;70.54;98619.84;5057775;28;20242;-77
2021/03/18 00:14:53;;;;;;;8.63;4.63;;;;;;;1.60;70.54;98611.28;5058237;28;20278;-77
2021/03/18 00:17:19;;;;;;;7.73;4.27;;;;;;;1.57;70.74;98600.97;5057674;28;20906;-76
2021/03/18 00:19:46;;;;;;;6.87;4.37;;;;;;;1.59;70.79;98599.25;5058013;28;20242;-78
2021/03/18 00:22:12;;;;;;;7.73;4.30;;;;;;;1.58;70.77;98597.56;5059641;28;20244;-77
2021/03/18 00:24:38;;;;;;;7.00;4.27;;;;;;;1.58;70.54;98592.41;5062044;28;20216;-76
2021/03/18 00:27:05;;;;;;;7.63;4.93;;;;;;;1.52;70.83;98587.22;5061849;28;20244;-79
2021/03/18 00:29:31;;;;;;;11.43;5.23;;;;;;;1.41;71.15;98587.16;5062034;28;20262;-76
2021/03/18 00:31:57;;;;;;;6.53;4.90;;;;;;;1.35;70.97;98585.44;5061835;28;20233;-76
2021/03/18 00:34:23;;;;;;;6.67;3.97;;;;;;;1.12;72.07;98587.00;5061805;28;20271;-78
2021/03/18 00:36:49;;;;;;;9.47;4.27;;;;;;;1.10;72.42;98589.59;5062000;28;20233;-77
2021/03/18 00:39:16;;;;;;;9.17;4.57;;;;;;;1.07;72.56;98588.72;5061813;28;20230;-76
2021/03/18 00:41:42;;;;;;;6.97;4.40;;;;;;;1.05;72.75;98581.00;5061484;28;20245;-77
2021/03/18 00:44:09;;;;;;;6.57;4.10;;;;;;;1.03;72.54;98587.84;5062211;28;20236;-76
2021/03/18 00:46:35;;;;;;;8.77;3.97;;;;;;;0.88;73.38;98591.16;5061453;28;20733;-76
2021/03/18 00:49:01;;;;;;;6.23;3.93;;;;;;;0.91;72.86;98593.72;5062106;28;20237;-75
2021/03/18 00:51:27;;;;;;;7.80;3.77;;;;;;;0.93;72.99;98597.16;5061465;28;20244;-75
2021/03/18 00:53:53;;;;;;;6.77;3.77;;;;;;;0.96;72.94;98588.63;5061851;28;20218;-77
2021/03/18 00:56:21;;;;;;;6.67;4.03;;;;;;;0.98;72.70;98593.78;5061357;28;20252;-76
2021/03/18 00:58:49;;;;;;;7.93;3.80;;;;;;;0.95;72.69;98594.59;5060550;28;20224;-76
2021/03/18 01:01:19;;;;;;;6.70;3.90;;;;;;;0.80;72.81;98594.50;5060372;28;20695;-77
2021/03/18 01:03:45;;;;;;;6.90;4.20;;;;;;;0.74;73.49;98592.75;5061847;28;20261;-76
2021/03/18 01:06:14;;;;;;;7.77;4.27;;;;;;;0.70;73.18;98590.97;5060883;28;20653;-75
2021/03/18 01:08:41;;;;;;;6.80;4.40;;;;;;;0.74;73.08;98593.59;5061574;28;20257;-76
2021/03/18 01:11:09;;;;;;;8.10;4.60;;;;;;;0.78;73.10;98591.91;5060615;28;20237;-78
2021/03/18 01:13:37;;;;;;;6.97;4.20;;;;;;;0.84;73.39;98604.81;5060695;28;20719;-76
2021/03/18 01:16:06;;;;;;;12.90;5.00;;;;;;;0.87;72.80;98592.00;5060706;28;20243;-77
2021/03/18 01:18:37;;;;;;;10.00;4.50;;;;;;;0.92;72.65;98595.47;5060927;28;20217;-78
2021/03/18 01:21:04;;;;;;;6.90;3.90;;;;;;;0.94;72.26;98596.31;5060473;28;20244;-76
2021/03/18 01:23:30;;;;;;;6.90;4.47;;;;;;;0.84;73.33;98594.53;5061018;28;20213;-76
2021/03/18 01:25:57;;;;;;;8.60;4.33;;;;;;;0.71;73.37;98592.72;5060766;28;20236;-76
2021/03/18 01:28:23;;;;;;;6.63;3.57;;;;;;;0.70;73.08;98591.88;5061337;28;20291;-77
2021/03/18 01:30:49;;;;;;;6.03;3.90;;;;;;;0.74;73.29;98587.63;5060285;28;20234;-77
2021/03/18 01:33:16;;;;;;;5.57;3.20;;;;;;;0.66;73.21;98586.69;5060638;28;20223;-75
2021/03/18 01:35:42;;;;;;;6.83;3.53;;;;;;;0.64;73.03;98578.97;5060429;28;20249;-77
2021/03/18 01:38:08;;;;;;;5.27;3.60;;;;;;;0.68;72.81;98591.00;5057148;28;20205;-75
2021/03/18 01:40:34;;;;;;;6.50;4.00;;;;;;;0.69;72.90;98581.59;5058318;28;20488;-76
2021/03/18 01:43:01;;;;;;;6.23;3.80;;;;;;;0.70;72.72;98584.16;5060469;28;20889;-76
2021/03/18 01:45:27;;;;;;;7.20;4.50;;;;;;;0.69;72.79;98592.69;5060270;28;20244;-76
2021/03/18 01:47:55;;;;;;;7.10;4.17;;;;;;;0.55;73.37;98595.16;5061159;28;20229;-76
2021/03/18 01:50:25;;;;;;;9.40;4.63;;;;;;;0.53;73.27;98594.31;5058782;28;20242;-77
2021/03/18 01:52:51;;;;;;;7.30;3.83;;;;;;;0.56;72.98;98596.88;5060587;28;20221;-77
2021/03/18 01:55:21;;;;;;;5.93;4.33;;;;;;;0.55;73.22;98600.31;5060372;28;20225;-76
2021/03/18 01:57:48;;;;;;;7.47;4.17;;;;;;;0.56;73.59;98607.16;5060183;28;20267;-76
2021/03/18 02:00:15;;;;;;;7.23;4.30;;;;;;;0.55;73.12;98610.56;5059489;28;20230;-76
2021/03/18 02:02:41;;;;;;;4.77;3.50;;;;;;;0.58;72.92;98599.47;5060396;28;20737;-76
2021/03/18 02:05:09;;;;;;;6.27;4.00;;;;;;;0.58;73.28;98604.59;5059940;28;20229;-77
2021/03/18 02:07:36;;;;;;;6.03;3.90;;;;;;;0.60;73.25;98612.31;5060041;28;20233;-77
2021/03/18 02:10:03;;;;;;;7.07;3.97;;;;;;;0.61;73.30;98609.75;5059926;28;20314;-76
2021/03/18 02:12:29;;;;;;;6.97;4.40;;;;;;;0.63;72.74;98607.22;5060335;28;20255;-76
2021/03/18 02:14:55;;;;;;;5.00;3.13;;;;;;;0.62;72.52;98601.19;5060270;28;20217;-77
2021/03/18 02:17:25;;;;;;;6.33;3.77;;;;;;;0.59;73.04;98608.91;5058300;28;21096;-76
2021/03/18 02:20:19;;;;;;;6.87;4.37;;;;;;;0.63;73.40;98602.09;5060258;28;20237;-77
2021/03/18 02:23:16;;;;;;;7.57;4.30;;;;;;;0.59;73.17;98601.19;5059556;28;20282;-76
2021/03/18 02:25:47;;;;;;;5.67;3.80;;;;;;;0.52;73.09;98600.28;5056274;28;20240;-77
2021/03/18 02:28:35;;;;;;;9.00;4.20;;;;;;;0.45;73.97;98607.91;5060507;28;20218;-76
2021/03/18 02:31:05;;;;;;;6.33;4.13;;;;;;;0.36;74.03;98608.69;5058618;28;20277;-75
2021/03/18 02:34:19;;;;;;;8.87;4.70;;;;;;;0.39;74.04;98608.72;5060400;28;20212;-76
2021/03/18 02:36:48;;;;;;;6.93;4.37;;;;;;;0.38;74.01;98606.97;5059347;28;20263;-76
2021/03/18 02:39:18;;;;;;;7.63;4.13;;;;;;;0.42;73.35;98598.44;5057578;28;20882;-76
2021/03/18 02:41:49;;;;;;;6.83;4.30;;;;;;;0.43;73.29;98605.31;5058378;28;20241;-76
2021/03/18 02:44:19;;;;;;;7.37;3.93;;;;;;;0.42;73.03;98603.59;5059428;28;20214;-77
2021/03/18 02:46:45;;;;;;;6.50;3.87;;;;;;;0.35;73.42;98609.50;5058282;28;20259;-76
2021/03/18 02:49:13;;;;;;;7.60;4.43;;;;;;;0.15;74.08;98610.19;5060021;28;20237;-76
2021/03/18 02:51:41;;;;;;;6.37;4.00;;;;;;;0.10;74.23;98606.72;5058851;28;20245;-77
2021/03/18 02:54:10;;;;;;;7.30;3.83;;;;;;;0.13;73.63;98605.88;5059023;28;20218;-77
2021/03/18 02:56:40;;;;;;;7.57;4.10;;;;;;;0.17;73.79;98600.78;5059218;28;20241;-78
2021/03/18 02:59:07;;;;;;;5.83;3.57;;;;;;;0.22;74.24;98599.97;5059624;28;20994;-76
2021/03/18 03:01:33;;;;;;;6.70;3.70;;;;;;;0.23;74.09;98604.28;5058747;28;20237;-76
2021/03/18 03:04:00;;;;;;;6.57;3.53;;;;;;;0.28;73.92;98600.06;5059071;28;20214;-75
2021/03/18 03:06:28;;;;;;;6.93;4.03;;;;;;;0.33;73.78;98598.38;5058408;28;20241;-75
2021/03/18 03:08:54;;;;;;;5.57;4.07;;;;;;;0.37;74.23;98598.44;5058716;28;20224;-75
2021/03/18 03:11:23;;;;;;;8.60;4.13;;;;;;;0.41;73.56;98595.91;5058578;28;20245;-76
2021/03/18 03:13:49;;;;;;;8.03;4.80;;;;;;;0.46;73.50;98596.78;5059328;28;20236;-77
2021/03/18 03:16:19;;;;;;;8.17;4.33;;;;;;;0.46;73.15;98595.09;5058772;28;20245;-76
2021/03/18 03:18:46;;;;;;;8.30;4.90;;;;;;;0.42;73.67;98588.19;5058883;28;20214;-77
2021/03/18 03:21:14;;;;;;;5.60;3.73;;;;;;;0.38;73.65;98596.72;5058618;28;20241;-76
2021/03/18 03:23:40;;;;;;;5.57;3.63;;;;;;;0.34;74.34;98597.53;5058864;28;20236;-77
2021/03/18 03:26:06;;;;;;;7.63;4.37;;;;;;;0.26;74.88;98601.72;5058456;28;20268;-76
2021/03/18 03:28:35;;;;;;;6.77;4.00;;;;;;;0.18;75.51;98599.09;5058880;28;20233;-75
2021/03/18 03:31:02;;;;;;;7.07;4.17;;;;;;;0.18;75.49;98597.41;5057235;28;20746;-77
2021/03/18 03:33:28;;;;;;;7.23;3.63;;;;;;;0.15;75.31;98599.94;5058472;28;20241;-76
2021/03/18 03:35:54;;;;;;;5.93;3.37;;;;;;;0.14;75.59;98595.63;5058510;28;20248;-76
2021/03/18 03:38:20;;;;;;;6.27;4.00;;;;;;;0.03;76.09;98607.47;5058556;28;20209;-76
2021/03/18 03:40:47;;;;;;;8.47;4.00;;;;;;;-0.04;76.79;98600.56;5057275;28;20241;-78
2021/03/18 03:43:14;;;;;;;5.97;3.90;;;;;;;-0.12;77.10;98602.19;5058611;28;20825;-77
2021/03/18 03:45:41;;;;;;;7.03;4.17;;;;;;;-0.05;76.29;98609.13;5058424;28;20567;-76
2021/03/18 03:48:08;;;;;;;6.73;4.03;;;;;;;0.02;76.25;98599.75;5057617;28;20237;-76
2021/03/18 03:50:35;;;;;;;6.50;4.50;;;;;;;0.10;75.97;98601.56;5057230;28;20241;-77
2021/03/18 03:53:07;;;;;;;6.10;4.10;;;;;;;0.12;76.26;98599.88;5058557;28;20391;-75
2021/03/18 03:55:42;;;;;;;7.00;4.67;;;;;;;0.06;76.54;98611.81;5057357;28;20229;-75
2021/03/18 03:58:12;;;;;;;6.77;4.50;;;;;;;0.07;76.39;98609.22;5058086;28;20205;-76
2021/03/18 04:00:41;;;;;;;7.90;4.53;;;;;;;-0.03;76.61;98604.84;5057354;28;20478;-75
2021/03/18 04:03:08;;;;;;;7.33;4.33;;;;;;;-0.03;76.90;98605.72;5058011;28;20213;-76
2021/03/18 04:05:36;;;;;;;7.90;4.27;;;;;;;0.00;76.62;98610.03;5057819;28;20298;-78
2021/03/18 04:08:07;;;;;;;8.63;4.47;;;;;;;-0.02;77.31;98610.00;5058207;28;20410;-76
2021/03/18 04:10:34;;;;;;;6.77;4.10;;;;;;;-0.07;77.64;98609.09;5056913;28;20247;-78
2021/03/18 04:13:01;;;;;;;7.00;4.30;;;;;;;-0.14;78.28;98604.72;5057341;28;20656;-75
2021/03/18 04:15:30;;;;;;;8.00;4.33;;;;;;;-0.26;78.92;98608.03;5056905;28;20366;-75
2021/03/18 04:17:58;;;;;;;6.60;4.27;;;;;;;-0.17;78.65;98611.53;5057894;28;20209;-76
2021/03/18 04:20:26;;;;;;;7.03;4.03;;;;;;;-0.20;78.53;98602.97;5057375;28;20241;-78
2021/03/18 04:22:56;;;;;;;6.23;4.20;;;;;;;-0.18;78.22;98609.78;5057347;28;20221;-76
2021/03/18 04:25:23;;;;;;;7.90;4.47;;;;;;;-0.09;77.62;98607.34;5056450;28;20217;-75
2021/03/18 04:27:50;;;;;;;6.83;4.23;;;;;;;0.00;77.79;98599.78;5058161;28;20750;-77
2021/03/18 04:30:16;;;;;;;7.30;4.90;;;;;;;0.08;77.52;98598.13;5057572;28;20241;-77
2021/03/18 04:32:44;;;;;;;7.93;4.23;;;;;;;0.10;77.63;98601.56;5058142;28;20225;-76
2021/03/18 04:35:12;;;;;;;8.10;4.33;;;;;;;0.17;77.61;98603.38;5057918;28;20267;-76
2021/03/18 04:37:39;;;;;;;8.77;4.50;;;;;;;0.16;77.88;98603.34;5057933;28;20213;-75
2021/03/18 04:40:07;;;;;;;6.90;4.57;;;;;;;0.12;77.84;98599.03;5057098;28;20241;-77
2021/03/18 04:42:34;;;;;;;7.00;4.50;;;;;;;0.15;77.37;98604.19;5057674;28;20217;-77
2021/03/18 04:45:00;;;;;;;7.77;4.33;;;;;;;0.21;77.00;98603.41;5057799;28;20858;-75
2021/03/18 04:47:26;;;;;;;9.60;5.27;;;;;;;0.23;77.04;98596.56;5057355;28;20241;-76
2021/03/18 04:49:52;;;;;;;8.87;4.97;;;;;;;0.30;76.72;98606.91;5057720;28;20229;-76
2021/03/18 04:52:20;;;;;;;7.10;4.67;;;;;;;0.28;77.53;98605.19;5057557;28;20264;-77
2021/03/18 04:54:47;;;;;;;9.87;5.10;;;;;;;0.21;78.19;98594.00;5057436;28;20213;-75
2021/03/18 04:57:16;;;;;;;11.00;5.07;;;;;;;0.29;77.22;98601.75;5057322;28;20871;-76
2021/03/18 04:59:43;;;;;;;9.70;5.20;;;;;;;0.36;76.85;98600.97;5057172;28;20746;-78
2021/03/18 05:02:09;;;;;;;8.20;5.63;;;;;;;0.42;76.76;98593.31;5057515;28;20233;-77
2021/03/18 05:04:36;;;;;;;9.30;5.03;;;;;;;0.46;76.94;98595.09;5057323;28;20230;-77
2021/03/18 05:07:02;;;;;;;9.80;5.67;;;;;;;0.44;77.29;98599.34;5056998;28;20237;-76
2021/03/18 05:09:30;;;;;;;9.10;4.80;;;;;;;0.40;77.30;98589.88;5059992;28;20234;-77
2021/03/18 05:11:57;;;;;;;8.87;4.90;;;;;;;0.38;77.24;98586.44;5060864;28;20244;-76
2021/03/18 05:14:24;;;;;;;8.97;5.30;;;;;;;0.40;77.58;98592.44;5061212;28;20308;-77
2021/03/18 05:16:50;;;;;;;9.53;5.43;;;;;;;0.44;76.98;98590.78;5060904;28;20924;-76
2021/03/18 05:19:17;;;;;;;8.70;4.80;;;;;;;0.45;77.38;98590.78;5060684;28;20704;-76
2021/03/18 05:21:45;;;;;;;10.87;5.40;;;;;;;0.33;78.54;98588.09;5059802;28;20788;-78
2021/03/18 05:24:12;;;;;;;8.70;5.40;;;;;;;0.26;78.60;98589.78;5061165;28;20231;-76
2021/03/18 05:26:39;;;;;;;8.37;5.03;;;;;;;0.27;79.18;98590.63;5060362;28;20233;-76
2021/03/18 05:29:06;;;;;;;8.70;5.17;;;;;;;0.19;79.69;98591.41;5061350;28;20222;-76
2021/03/18 05:31:32;;;;;;;5.87;4.07;;;;;;;0.22;78.60;98592.28;5060665;28;20241;-77
2021/03/18 05:33:58;;;;;;;6.43;4.63;;;;;;;0.24;78.71;98588.00;5060146;28;20590;-75
2021/03/18 05:36:25;;;;;;;8.77;5.20;;;;;;;0.31;78.78;98594.94;5060304;28;20241;-77
2021/03/18 05:38:51;;;;;;;8.23;5.33;;;;;;;0.39;78.35;98593.31;5060602;28;20221;-75
2021/03/18 05:41:20;;;;;;;8.47;5.00;;;;;;;0.44;78.18;98596.78;5060024;28;20537;-77
2021/03/18 05:43:47;;;;;;;7.47;4.30;;;;;;;0.51;78.21;98595.13;5060614;28;20314;-76
2021/03/18 05:46:14;;;;;;;7.20;4.40;;;;;;;0.56;77.72;98596.03;5060042;28;20673;-76
2021/03/18 05:48:41;;;;;;;7.40;4.27;;;;;;;0.60;77.52;98592.63;5061384;28;20244;-77
2021/03/18 05:51:07;;;;;;;8.53;4.60;;;;;;;0.54;78.08;98593.44;5058742;28;20238;-77
2021/03/18 05:53:33;;;;;;;7.93;4.10;;;;;;;0.49;78.44;98596.81;5059612;28;20343;-77
2021/03/18 05:56:00;;;;;;;7.73;4.90;;;;;;;0.54;78.50;98590.88;5058604;28;20764;-77
2021/03/18 05:58:26;;;;;;;8.93;4.77;;;;;;;0.56;77.79;98585.75;5060650;28;20224;-77
2021/03/18 06:00:53;;;;;;;7.67;4.90;;;;;;;0.56;78.12;98586.59;5059661;28;20854;-78
2021/03/18 06:03:20;;;;;;;8.70;5.00;;;;;;;0.52;78.80;98584.88;5040925;28;20268;-77
2021/03/18 06:05:46;;;;;;;8.70;5.17;;;;;;;0.46;79.42;98589.97;5059380;28;20237;-76
2021/03/18 06:08:13;;;;;;;7.37;4.90;;;;;;;0.46;79.41;98583.94;5061980;28;20225;-77
2021/03/18 06:10:39;;;;;;;8.13;5.47;;;;;;;0.55;78.72;98584.91;5061466;28;20722;-76
2021/03/18 06:13:06;;;;;;;10.00;5.70;;;;;;;0.63;78.11;98581.53;5062486;28;20214;-77
2021/03/18 06:15:32;;;;;;;8.63;5.30;;;;;;;0.65;78.47;98585.84;5062259;28;20233;-84
2021/03/18 06:18:02;;;;;;;8.13;4.97;;;;;;;0.50;79.73;98580.59;5062322;28;20301;-77
2021/03/18 06:20:30;;;;;;;9.20;5.30;;;;;;;0.40;80.67;98581.34;5060521;28;20244;-77
2021/03/18 06:22:58;;;;;;;11.67;5.70;;;;;;;0.40;81.59;98589.88;5062130;28;20239;-77
2021/03/18 06:25:26;;;;;;;9.67;5.00;;;;;;;0.42;81.35;98587.34;5061653;28;20213;-76
2021/03/18 06:28:11;;;;;;;10.40;5.97;;;;;;;0.38;82.27;98586.44;5061497;28;20237;-77
2021/03/18 06:30:37;;;;;;;10.07;6.60;;;;;;;0.45;81.29;98580.53;5061434;28;20730;-76
2021/03/18 06:33:17;;;;;;;9.80;5.97;;;;;;;0.52;81.23;98584.88;5061897;28;20282;-77
2021/03/18 06:35:44;;;;;;;7.57;5.17;;;;;;;0.56;80.61;98585.75;5061947;28;20816;-79
2021/03/18 06:38:10;;;;;;;9.53;5.50;;;;;;;0.48;81.79;98588.25;5062225;28;20293;-78
2021/03/18 06:40:40;;;;;;;9.67;6.60;;;;;;;0.54;81.16;98585.75;5061796;28;20306;-76
2021/03/18 06:43:06;;;;;;;10.93;7.00;;;;;;;0.67;80.40;98585.84;5061231;28;21137;-77
2021/03/18 06:45:33;;;;;;;11.93;5.67;;;;;;;0.72;80.70;98586.75;5061688;28;20234;-77
2021/03/18 06:48:01;;;;;;;9.67;5.93;;;;;;;0.63;81.54;98581.53;5061513;28;20241;-76
2021/03/18 06:50:32;;;;;;;11.23;6.47;;;;;;;0.53;82.33;98589.16;5060858;28;20310;-76
2021/03/18 06:52:58;;;;;;;9.67;6.07;;;;;;;0.65;81.59;98590.13;5061410;28;20683;-77
2021/03/18 06:55:27;;;;;;;14.73;7.57;;;;;;;0.66;81.94;98581.53;5060738;28;20296;-78
2021/03/18 06:58:17;;;;;;;10.90;6.70;;;;;;;0.79;81.06;98591.09;5061565;28;20217;-77
2021/03/18 07:00:46;;;;;;;11.80;7.70;;;;;;;0.89;80.26;98587.72;5053633;28;20545;-75
2021/03/18 07:03:23;;;;;;;10.90;7.03;;;;;;;1.01;80.36;98584.41;5061469;28;20271;-77
2021/03/18 07:05:50;;;;;;;10.60;6.83;;;;;;;1.07;80.30;98591.28;5060781;28;20235;-76
2021/03/18 07:08:21;;;;;;;9.93;6.13;;;;;;;1.04;80.78;98594.66;5061894;28;20247;-78
2021/03/18 07:10:48;;;;;;;9.87;6.53;;;;;;;1.01;81.03;98594.66;5059692;28;20233;-76
2021/03/18 07:13:18;;;;;;;12.30;6.90;;;;;;;1.04;81.16;98583.53;5061139;28;20220;-76
2021/03/18 07:15:44;;;;;;;12.27;7.53;;;;;;;0.93;82.63;98593.75;5061207;28;20248;-76
2021/03/18 07:18:11;;;;;;;15.23;7.73;;;;;;;1.01;81.81;98592.09;5061869;28;20304;-77
2021/03/18 07:20:37;;;;;;;13.50;9.87;;;;;;;1.21;81.10;98589.63;5060825;28;20761;-75
2021/03/18 07:23:12;;;;;;;13.87;9.27;;;;;;;1.37;80.42;98597.44;5061531;28;20678;-76
2021/03/18 07:25:45;;;;;;;14.60;8.60;;;;;;;1.47;79.84;98594.94;5060850;28;20240;-76
2021/03/18 07:28:14;;;;;;;12.33;7.43;;;;;;;1.49;80.58;98590.66;5061785;28;20226;-76
2021/03/18 07:30:41;;;;;;;13.60;8.87;;;;;;;1.63;80.05;98595.84;5060390;28;21151;-77
2021/03/18 07:33:07;;;;;;;12.53;8.40;;;;;;;1.64;80.31;98586.44;5060774;28;20217;-76
2021/03/18 07:35:34;;;;;;;15.70;9.67;;;;;;;1.64;80.82;98596.72;5060596;28;20230;-79
2021/03/18 07:38:01;;;;;;;14.87;8.40;;;;;;;1.59;81.46;98594.13;5060427;28;20593;-77
2021/03/18 07:40:29;;;;;;;13.97;8.70;;;;;;;1.73;80.21;98591.63;5060681;28;20237;-77
2021/03/18 07:42:57;;;;;;;15.20;8.90;;;;;;;1.90;79.45;98594.25;5061236;28;20209;-76
2021/03/18 07:45:24;;;;;;;13.80;8.40;;;;;;;2.04;79.20;98587.44;5059386;28;20217;-77
2021/03/18 07:47:50;;;;;;;15.67;9.47;;;;;;;2.17;78.50;98582.28;5061338;28;20290;-77
2021/03/18 07:50:19;;;;;;;16.40;8.90;;;;;;;2.16;78.76;98585.75;5060146;28;20230;-77
2021/03/18 07:54:20;;;;;;;14.83;8.37;;;;;;;2.11;78.90;98576.31;5110341;27;20510;-78
2021/03/18 07:56:51;;;;;;;15.37;9.03;;;;;;;2.20;78.74;98582.31;5083915;27;20327;-77
2021/03/18 07:59:19;;;;;;;16.67;9.43;;;;;;;2.29;78.52;98579.75;5076430;28;20489;-78
2021/03/18 08:01:45;;;;;;;15.13;9.13;;;;;;;2.36;78.73;98578.91;5078029;28;20267;-78
2021/03/18 08:04:12;;;;;;;15.53;9.37;;;;;;;2.56;78.25;98568.63;5078623;28;20205;-78
2021/03/18 08:06:50;;;;;;;13.27;8.50;;;;;;;2.57;78.15;98572.03;5077729;28;20764;-77
2021/03/18 08:09:20;;;;;;;13.83;8.93;;;;;;;2.64;78.30;98571.19;5075930;28;20756;-78
2021/03/18 08:11:48;;;;;;;16.03;8.90;;;;;;;2.64;77.74;98572.03;5077172;28;20247;-77
2021/03/18 08:14:16;;;;;;;13.23;8.67;;;;;;;2.74;77.74;98570.34;5077797;28;20225;-78
2021/03/18 08:16:43;;;;;;;13.90;9.17;;;;;;;2.88;77.54;98576.31;5077628;28;20244;-77
2021/03/18 08:19:10;;;;;;;15.53;10.10;;;;;;;2.99;76.81;98580.63;5077320;28;20916;-77
2021/03/18 08:21:38;;;;;;;12.43;8.60;;;;;;;3.06;76.57;98577.16;5077451;28;20260;-78
2021/03/18 08:24:05;;;;;;;15.37;9.13;;;;;;;3.15;75.82;98571.16;5077933;28;20798;-77
2021/03/18 08:26:43;;;;;;;15.60;9.53;;;;;;;3.23;75.66;98572.81;5076822;28;21042;-78
2021/03/18 08:29:13;;;;;;;13.53;8.67;;;;;;;3.29;75.16;98574.56;5077740;28;20212;-79
2021/03/18 08:31:54;;;;;;;12.10;7.80;;;;;;;3.32;75.06;98577.09;5076945;28;20653;-80
2021/03/18 08:34:21;;;;;;;12.00;8.20;;;;;;;3.36;76.11;98575.38;5075989;28;20298;-78
2021/03/18 08:36:56;;;;;;;11.93;7.93;;;;;;;3.37;75.41;98571.94;5076966;28;20255;-78
2021/03/18 08:39:38;;;;;;;14.60;8.73;;;;;;;3.34;74.97;98579.69;5075934;28;20827;-79
2021/03/18 08:42:05;;;;;;;15.23;8.93;;;;;;;3.44;75.36;98564.19;5076823;28;20644;-78
2021/03/18 08:44:41;;;;;;;11.10;7.77;;;;;;;3.53;74.82;98568.47;5077808;28;20225;-77
2021/03/18 08:47:11;;;;;;;12.47;7.60;;;;;;;3.64;74.72;98566.69;5076369;28;20244;-77
2021/03/18 08:49:42;;;;;;;11.60;8.43;;;;;;;3.62;74.35;98563.25;5077796;28;20240;-79
2021/03/18 08:52:09;;;;;;;11.93;8.13;;;;;;;3.64;75.13;98569.28;5076357;28;20237;-78
2021/03/18 08:54:52;;;;;;;13.07;7.63;;;;;;;3.67;75.13;98565.81;5076739;28;20213;-78
2021/03/18 08:57:30;;;;;;;11.60;7.57;;;;;;;3.76;73.61;98568.34;5074772;28;20721;-78
2021/03/18 09:00:00;;;;;;;10.37;7.80;;;;;;;3.93;74.30;98564.84;5077386;28;20245;-77
2021/03/18 09:02:32;;;;;;;11.53;7.47;;;;;;;3.86;72.86;98559.72;5076196;28;20294;-80
2021/03/18 09:04:59;;;;;;;11.03;7.00;;;;;;;4.00;72.69;98564.78;5066296;28;20389;-78
2021/03/18 09:07:27;;;;;;;9.40;6.87;;;;;;;4.10;72.62;98559.56;5059813;28;20241;-76
2021/03/18 09:10:06;;;;;;;9.67;6.77;;;;;;;4.18;71.53;98555.22;5061072;28;20702;-78
2021/03/18 09:12:37;;;;;;;9.60;6.40;;;;;;;4.24;70.81;98555.19;5063243;28;20589;-77
2021/03/18 09:15:16;;;;;;;11.17;7.10;;;;;;;4.29;71.09;98548.25;5062158;28;20660;-79
2021/03/18 09:17:44;;;;;;;10.17;6.67;;;;;;;4.38;71.05;98545.63;5063115;28;20291;-77
2021/03/18 09:20:11;;;;;;;10.30;6.77;;;;;;;4.50;70.97;98546.38;5062420;28;20333;-77
2021/03/18 09:22:37;;;;;;;9.70;7.03;;;;;;;4.60;70.53;98551.47;5062805;28;20686;-78
2021/03/18 09:25:05;;;;;;;8.97;6.67;;;;;;;4.67;70.10;98541.06;5063268;28;20244;-78
2021/03/18 09:27:35;;;;;;;9.80;7.90;;;;;;;4.94;68.95;98540.81;5062187;28;20280;-78
2021/03/18 09:30:25;;;;;;;8.63;6.30;;;;;;;5.11;68.67;98538.09;5062261;28;20230;-78
2021/03/18 09:32:52;;;;;;;8.83;6.70;;;;;;;5.20;68.88;98535.41;5042576;28;20238;-77
2021/03/18 09:35:19;;;;;;;9.10;6.37;;;;;;;5.29;68.46;98536.16;5043638;28;20576;-77
2021/03/18 09:37:46;;;;;;;8.93;6.30;;;;;;;5.39;68.42;98532.59;5062657;28;20209;-78
2021/03/18 09:40:14;;;;;;;9.27;5.87;;;;;;;5.41;68.00;98536.88;5061157;28;20784;-77
2021/03/18 09:42:40;;;;;;;7.33;5.50;;;;;;;5.36;66.17;98530.91;5062791;28;20220;-77
2021/03/18 09:45:08;;;;;;;8.50;5.33;;;;;;;5.12;64.63;98529.44;5062945;28;20214;-77
2021/03/18 09:47:36;;;;;;;7.93;5.50;;;;;;;5.32;65.57;98520.63;5062867;28;20240;-78
2021/03/18 09:50:03;;;;;;;8.83;5.93;;;;;;;5.62;65.50;98519.38;5062939;28;20241;-79
2021/03/18 09:52:29;;;;;;;7.70;5.43;;;;;;;5.88;65.37;98506.09;5061803;28;20613;-76
2021/03/18 09:54:56;;;;;;;8.97;5.67;;;;;;;5.97;63.99;98510.31;5061992;28;20674;-78
2021/03/18 09:57:23;;;;;;;8.60;5.50;;;;;;;6.11;64.76;98513.56;5061969;28;20233;-76
2021/03/18 09:59:51;;;;;;;7.70;5.50;;;;;;;6.42;63.27;98501.88;5062359;28;20237;-78
2021/03/18 10:02:18;;;;;;;5.15;2.78;;;;;;;6.41;59.96;98500.16;5059768;28;20237;-78
2021/03/18 10:04:45;;;;;;;7.70;5.23;;;;;;;6.26;59.90;98498.66;5062215;28;20258;-77
2021/03/18 10:07:12;;;;;;;6.10;4.60;;;;;;;6.42;61.12;98496.69;5062025;28;20248;-78
2021/03/18 10:09:40;;;;;;;7.30;5.40;;;;;;;6.66;60.96;98488.50;5062427;28;20268;-77
2021/03/18 10:12:08;;;;;;;7.00;5.07;;;;;;;6.67;61.19;98492.81;5061628;28;20233;-77
2021/03/18 10:14:37;;;;;;;6.65;3.40;;;;;;;6.53;61.10;98489.59;5061581;28;20888;-78
2021/03/18 10:17:05;;;;;;;5.60;3.80;;;;;;;6.21;57.79;98487.50;5060464;28;20237;-79
2021/03/18 10:19:33;;;;;;;4.07;3.60;;;;;;;6.17;58.06;98479.78;5062477;28;20237;-76
2021/03/18 10:22:01;;;;;;;9.70;8.13;;;;;;;6.06;57.18;98471.31;5061625;28;20233;-77
2021/03/18 10:24:27;;;;;;;4.25;3.38;;;;;;;6.02;57.47;98468.81;5061956;28;20857;-79
2021/03/18 10:26:53;;;;;;;5.87;4.53;;;;;;;5.89;57.66;98466.38;5060736;28;20252;-78
2021/03/18 10:29:19;;;;;;;4.90;3.63;;;;;;;5.91;58.08;98469.78;5062197;28;20237;-76
2021/03/18 10:31:47;;;;;;;5.37;4.00;;;;;;;5.92;58.12;98476.69;5061126;28;20234;-77
2021/03/18 10:34:23;;;;;;;6.20;4.10;;;;;;;5.89;55.73;98466.38;5061537;28;20233;-77
2021/03/18 10:36:49;;;;;;;4.23;3.80;;;;;;;5.68;56.67;98474.44;5061411;28;20287;-77
2021/03/18 10:39:21;;;;;;;5.13;3.27;;;;;;;5.51;55.81;98474.66;5059009;28;20225;-79
2021/03/18 10:41:52;;;;;;;5.60;3.47;;;;;;;5.30;56.58;98466.31;5061495;28;20247;-78
2021/03/18 10:44:20;;;;;;;5.53;4.00;;;;;;;5.15;57.88;98467.34;5059829;28;20217;-78
2021/03/18 10:46:46;;;;;;;3.93;2.87;;;;;;;4.96;59.07;98476.19;5060917;28;20245;-78
2021/03/18 10:49:13;;;;;;;2.37;1.17;;;;;;;4.74;59.16;98466.09;5061422;28;21075;-78
2021/03/18 10:51:43;;;;;;;3.53;1.90;;;;;;;4.59;60.55;98473.97;5061146;28;20490;-78
2021/03/18 10:54:18;;;;;;;1.63;1.50;;;;;;;4.45;61.35;98474.09;5060570;28;20733;-77
2021/03/18 10:56:44;;;;;;;5.13;3.17;;;;;;;4.41;61.75;98472.41;5061034;28;20237;-79
2021/03/18 10:59:15;;;;;;;5.03;3.30;;;;;;;4.38;61.12;98468.13;5061706;28;20221;-77
2021/03/18 11:01:41;;;;;;;5.63;4.27;;;;;;;4.38;60.69;98467.28;5060661;28;20255;-76
2021/03/18 11:04:07;;;;;;;5.50;3.23;;;;;;;4.37;60.69;98470.72;5061463;28;20209;-78
2021/03/18 11:06:34;;;;;;;5.27;3.67;;;;;;;4.38;61.66;98468.13;5060665;28;20248;-77
2021/03/18 11:09:00;;;;;;;5.43;4.13;;;;;;;4.53;61.73;98466.28;5060407;28;20880;-78
2021/03/18 11:11:29;;;;;;;4.70;3.70;;;;;;;4.59;61.30;98458.47;5060369;28;20268;-78
2021/03/18 11:14:04;;;;;;;5.37;3.57;;;;;;;4.47;60.83;98455.97;5060564;28;20243;-79
2021/03/18 11:16:30;;;;;;;4.20;3.50;;;;;;;4.50;61.02;98461.13;5060645;28;20241;-77
2021/03/18 11:18:58;;;;;;;5.20;4.03;;;;;;;4.60;61.83;98465.34;5061421;28;20220;-77
2021/03/18 11:21:26;;;;;;;6.10;3.90;;;;;;;4.77;61.21;98455.69;5059945;28;20722;-77
2021/03/18 11:23:54;;;;;;;5.00;3.43;;;;;;;4.80;60.99;98457.41;5061059;28;20235;-78
2021/03/18 11:26:21;;;;;;;5.63;3.87;;;;;;;4.82;60.54;98456.50;5060822;28;20255;-77
2021/03/18 11:28:50;;;;;;;5.17;4.00;;;;;;;4.96;60.46;98450.31;5061049;28;20213;-79
2021/03/18 11:31:19;;;;;;;5.40;4.20;;;;;;;5.11;60.75;98449.28;5058472;28;20252;-78
2021/03/18 11:33:45;;;;;;;6.80;4.67;;;;;;;5.07;59.89;98447.63;5060590;28;20345;-77
2021/03/18 11:36:11;;;;;;;5.63;4.63;;;;;;;5.05;59.91;98445.03;5060402;28;20253;-79
2021/03/18 11:38:37;;;;;;;6.33;5.03;;;;;;;4.99;59.79;98437.38;5060767;28;20214;-77
2021/03/18 11:41:04;;;;;;;6.40;4.10;;;;;;;5.04;59.80;98440.75;5060371;28;20616;-78
2021/03/18 11:43:30;;;;;;;5.90;4.70;;;;;;;4.99;59.14;98440.81;5060641;28;20247;-77
2021/03/18 11:45:58;;;;;;;5.90;4.77;;;;;;;5.19;59.40;98432.81;5060036;28;20611;-78